createdAt,value
2023-04-01T00:01:59.063Z,1.40
2023-04-01T00:04:26.315Z,1.50
2023-04-01T00:06:54.023Z,1.50
2023-04-01T00:09:23.887Z,1.60
2023-04-01T00:11:51.096Z,1.60
2023-04-01T00:14:18.468Z,1.60
2023-04-01T00:16:45.753Z,1.53
2023-04-01T00:19:12.902Z,1.40
2023-04-01T00:21:40.001Z,1.40
2023-04-01T00:24:08.003Z,1.80
2023-04-01T00:26:35.137Z,1.30
2023-04-01T00:29:02.449Z,1.33
2023-04-01T00:31:30.419Z,1.40
2023-04-01T00:33:57.645Z,1.23
2023-04-01T00:36:25.030Z,1.53
2023-04-01T00:38:52.953Z,1.53
2023-04-01T00:41:22.586Z,1.53
2023-04-01T00:43:51.927Z,1.60
2023-04-01T00:46:19.882Z,1.40
2023-04-01T00:48:51.488Z,1.40
2023-04-01T00:51:23.036Z,1.70
2023-04-01T00:53:53.488Z,1.60
2023-04-01T00:56:26.274Z,1.50
2023-04-01T00:59:09.254Z,1.47
2023-04-01T01:01:37.157Z,1.87
2023-04-01T01:04:04.876Z,1.60
2023-04-01T01:06:47.194Z,1.50
2023-04-01T01:09:22.434Z,1.70
2023-04-01T01:12:41.699Z,1.50
2023-04-01T01:15:09.138Z,1.60
2023-04-01T01:18:01.275Z,1.83
2023-04-01T01:20:39.475Z,1.63
2023-04-01T01:23:24.690Z,2.07
2023-04-01T01:26:16.531Z,2.03
2023-04-01T01:28:57.081Z,1.60
2023-04-01T01:32:18.432Z,2.13
2023-04-01T01:35:17.569Z,1.40
2023-04-01T01:37:47.000Z,1.70
2023-04-01T01:40:16.684Z,1.60
2023-04-01T01:42:49.512Z,1.70
2023-04-01T01:45:20.506Z,1.40
2023-04-01T01:47:49.916Z,2.03
2023-04-01T01:50:18.168Z,1.80
2023-04-01T01:52:45.738Z,1.60
2023-04-01T01:55:37.388Z,1.67
2023-04-01T01:58:13.188Z,1.80
2023-04-01T02:00:41.712Z,1.53
2023-04-01T02:03:09.638Z,1.90
2023-04-01T02:05:37.287Z,1.43
2023-04-01T02:08:13.865Z,1.70
2023-04-01T02:10:44.664Z,1.50
2023-04-01T02:13:38.767Z,1.70
2023-04-01T02:16:14.268Z,1.50
2023-04-01T02:18:42.614Z,1.40
2023-04-01T02:21:11.268Z,1.50
2023-04-01T02:23:39.732Z,1.60
2023-04-01T02:26:09.278Z,1.73
2023-04-01T02:28:39.418Z,1.43
2023-04-01T02:31:07.342Z,1.53
2023-04-01T02:33:34.954Z,1.60
2023-04-01T02:36:02.136Z,1.60
2023-04-01T02:38:29.371Z,1.50
2023-04-01T02:41:02.068Z,1.53
2023-04-01T02:43:29.310Z,1.43
2023-04-01T02:45:56.888Z,1.73
2023-04-01T02:48:24.175Z,1.50
2023-04-01T02:50:51.719Z,1.60
2023-04-01T02:53:18.962Z,1.43
2023-04-01T02:55:46.460Z,2.10
2023-04-01T02:58:13.616Z,1.50
2023-04-01T03:00:40.797Z,1.17
2023-04-01T03:03:08.291Z,1.10
2023-04-01T03:05:38.689Z,1.57
2023-04-01T03:08:06.474Z,1.33
2023-04-01T03:10:36.312Z,1.30
2023-04-01T03:13:03.493Z,1.30
2023-04-01T03:15:30.883Z,1.33
2023-04-01T03:17:58.395Z,1.30
2023-04-01T03:20:25.656Z,1.47
2023-04-01T03:22:52.837Z,1.60
2023-04-01T03:25:20.408Z,1.50
2023-04-01T03:27:47.495Z,1.47
2023-04-01T03:30:14.649Z,1.33
2023-04-01T03:32:41.903Z,1.50
2023-04-01T03:35:10.809Z,1.70
2023-04-01T03:37:38.069Z,1.40
2023-04-01T03:40:06.197Z,1.27
2023-04-01T03:42:33.621Z,1.73
2023-04-01T03:45:00.871Z,1.33
2023-04-01T03:47:28.136Z,1.27
2023-04-01T03:49:55.493Z,1.10
2023-04-01T03:52:22.946Z,1.37
2023-04-01T03:54:50.120Z,1.13
2023-04-01T03:57:17.382Z,1.10
2023-04-01T03:59:44.596Z,1.20
2023-04-01T04:02:15.051Z,1.27
2023-04-01T04:04:42.498Z,1.57
2023-04-01T04:07:09.978Z,1.10
2023-04-01T04:09:37.290Z,1.27
2023-04-01T04:12:07.012Z,1.30
2023-04-01T04:14:34.163Z,1.33
2023-04-01T04:17:01.343Z,1.33
2023-04-01T04:19:32.328Z,1.10
2023-04-01T04:22:01.808Z,1.10
2023-04-01T04:24:29.064Z,1.20
2023-04-01T04:26:56.193Z,1.47
2023-04-01T04:29:23.959Z,1.17
2023-04-01T04:31:51.131Z,1.20
2023-04-01T04:34:19.537Z,1.30
2023-04-01T04:36:46.786Z,1.20
2023-04-01T04:39:21.233Z,1.40
2023-04-01T04:41:48.656Z,1.10
2023-04-01T04:44:16.057Z,1.37
2023-04-01T04:46:43.236Z,1.10
2023-04-01T04:49:10.720Z,1.30
2023-04-01T04:51:37.982Z,1.00
2023-04-01T04:54:06.066Z,1.20
2023-04-01T04:56:33.591Z,1.10
2023-04-01T04:59:01.087Z,1.00
2023-04-01T05:01:28.498Z,0.83
2023-04-01T05:03:55.825Z,1.20
2023-04-01T05:06:23.665Z,1.40
2023-04-01T05:08:51.446Z,0.90
2023-04-01T05:11:20.417Z,1.20
2023-04-01T05:13:47.856Z,1.30
2023-04-01T05:16:18.349Z,1.27
2023-04-01T05:18:45.737Z,1.33
2023-04-01T05:21:15.145Z,1.27
2023-04-01T05:23:43.116Z,1.17
2023-04-01T05:26:14.888Z,1.13
2023-04-01T05:28:42.169Z,1.00
2023-04-01T05:31:09.552Z,1.20
2023-04-01T05:33:37.088Z,1.17
2023-04-01T05:36:12.130Z,1.20
2023-04-01T05:38:40.824Z,1.37
2023-04-01T05:41:07.956Z,1.37
2023-04-01T05:43:37.929Z,1.20
2023-04-01T05:46:05.708Z,1.13
2023-04-01T05:48:36.046Z,1.20
2023-04-01T05:51:04.533Z,1.30
2023-04-01T05:53:31.922Z,1.23
2023-04-01T05:56:04.163Z,2.30
2023-04-01T05:58:34.374Z,2.30
2023-04-01T06:01:09.588Z,1.33
2023-04-01T06:03:38.599Z,1.10
2023-04-01T06:06:09.516Z,1.07
2023-04-01T06:08:36.731Z,1.57
2023-04-01T06:11:28.952Z,1.13
2023-04-01T06:14:17.578Z,1.13
2023-04-01T06:16:50.630Z,1.30
2023-04-01T06:19:35.907Z,0.93
2023-04-01T06:22:14.329Z,1.00
2023-04-01T06:24:47.674Z,1.10
2023-04-01T06:27:33.622Z,1.03
2023-04-01T06:30:24.352Z,1.20
2023-04-01T06:33:10.140Z,1.27
2023-04-01T06:35:57.576Z,1.30
2023-04-01T06:39:06.103Z,1.20
2023-04-01T06:41:56.728Z,1.37
2023-04-01T06:44:56.464Z,1.20
2023-04-01T06:47:58.653Z,1.30
2023-04-01T06:50:36.154Z,1.20
2023-04-01T06:53:20.388Z,1.10
2023-04-01T06:55:57.456Z,1.07
2023-04-01T06:58:30.631Z,1.20
2023-04-01T07:01:05.235Z,1.17
2023-04-01T07:03:46.296Z,1.60
2023-04-01T07:06:36.284Z,1.00
2023-04-01T07:09:17.474Z,1.13
2023-04-01T07:11:45.037Z,0.90
2023-04-01T07:14:36.337Z,1.00
2023-04-01T07:17:16.918Z,1.00
2023-04-01T07:19:46.622Z,0.93
2023-04-01T07:22:23.225Z,1.00
2023-04-01T07:24:51.204Z,0.90
2023-04-01T07:27:18.517Z,0.70
2023-04-01T07:29:46.385Z,0.90
2023-04-01T07:33:03.099Z,0.90
2023-04-01T07:36:03.001Z,0.90
2023-04-01T07:38:59.310Z,0.90
2023-04-01T07:42:02.983Z,0.90
2023-04-01T07:44:41.482Z,0.67
2023-04-01T07:47:36.072Z,0.80
2023-04-01T07:50:12.164Z,0.95
2023-04-01T07:53:03.767Z,1.00
2023-04-01T07:55:35.995Z,0.68
2023-04-01T07:58:12.431Z,0.93
2023-04-01T08:01:21.252Z,0.63
2023-04-01T08:04:12.949Z,0.63
2023-04-01T08:07:13.095Z,0.80
2023-04-01T08:10:18.393Z,0.52
2023-04-01T08:13:03.604Z,0.60
2023-04-01T08:15:42.848Z,1.00
2023-04-01T08:18:28.103Z,0.80
2023-04-01T08:21:04.045Z,0.70
2023-04-01T08:23:37.718Z,0.80
2023-04-01T08:26:08.368Z,0.88
2023-04-01T08:28:42.712Z,0.60
2023-04-01T08:31:36.065Z,0.80
2023-04-01T08:34:09.466Z,0.90
2023-04-01T08:36:42.233Z,0.80
2023-04-01T08:39:15.831Z,0.60
2023-04-01T08:41:46.089Z,0.60
2023-04-01T08:44:37.883Z,0.75
2023-04-01T08:47:25.064Z,0.60
2023-04-01T08:50:19.477Z,0.70
2023-04-01T08:53:09.157Z,0.70
2023-04-01T08:55:42.184Z,0.70
2023-04-01T08:58:26.520Z,0.73
2023-04-01T09:01:02.608Z,0.70
2023-04-01T09:03:40.288Z,0.60
2023-04-01T09:06:23.512Z,0.80
2023-04-01T09:09:27.314Z,0.68
2023-04-01T09:12:00.510Z,0.60
2023-04-01T09:14:59.078Z,0.68
2023-04-01T09:17:50.520Z,0.63
2023-04-01T09:20:47.174Z,0.75
2023-04-01T09:23:36.118Z,0.60
2023-04-01T09:26:24.502Z,0.88
2023-04-01T09:29:18.777Z,0.52
2023-04-01T09:31:51.773Z,0.75
2023-04-01T09:34:47.249Z,0.70
2023-04-01T09:37:43.100Z,0.70
2023-04-01T09:40:35.035Z,0.60
2023-04-01T09:43:38.161Z,0.40
2023-04-01T09:46:23.823Z,0.40
2023-04-01T09:49:12.386Z,0.40
2023-04-01T09:52:05.102Z,0.40
2023-04-01T09:55:08.449Z,0.60
2023-04-01T09:58:10.523Z,0.60
2023-04-01T10:00:56.461Z,0.73
2023-04-01T10:03:56.070Z,0.60
2023-04-01T10:07:00.887Z,0.50
2023-04-01T10:10:01.464Z,0.60
2023-04-01T10:12:51.454Z,0.40
2023-04-01T10:15:26.280Z,0.50
2023-04-01T10:18:20.692Z,0.60
2023-04-01T10:20:56.648Z,0.50
2023-04-01T10:23:41.954Z,0.50
2023-04-01T10:26:40.491Z,0.40
2023-04-01T10:29:13.620Z,0.50
2023-04-01T10:31:59.754Z,0.50
2023-04-01T10:34:50.524Z,0.30
2023-04-01T10:37:47.946Z,0.40
2023-04-01T10:40:19.041Z,0.30
2023-04-01T10:43:15.262Z,0.40
2023-04-01T10:46:21.317Z,0.30
2023-04-01T10:49:09.669Z,0.40
2023-04-01T10:52:09.236Z,0.30
2023-04-01T10:54:41.405Z,0.40
2023-04-01T10:58:05.731Z,0.40
2023-04-01T11:00:42.400Z,0.40
2023-04-01T11:03:46.762Z,0.30
2023-04-01T11:06:32.959Z,0.30
2023-04-01T11:09:06.271Z,0.30
2023-04-01T11:11:52.167Z,0.40
2023-04-01T11:14:20.019Z,0.30
2023-04-01T11:17:24.970Z,0.30
2023-04-01T11:20:14.071Z,0.33
2023-04-01T11:23:05.368Z,0.37
2023-04-01T11:25:53.956Z,0.40
2023-04-01T11:28:27.055Z,0.20
2023-04-01T11:31:32.232Z,0.50
2023-04-01T11:34:07.239Z,0.53
2023-04-01T11:37:09.494Z,0.40
2023-04-01T11:40:01.052Z,0.47
2023-04-01T11:42:55.360Z,0.30
2023-04-01T11:45:40.949Z,0.30
2023-04-01T11:48:35.601Z,0.40
2023-04-01T11:51:38.398Z,0.30
2023-04-01T11:54:43.032Z,0.43
2023-04-01T11:57:37.563Z,0.50
2023-04-01T12:00:29.092Z,0.23
2023-04-01T12:03:34.258Z,0.30
2023-04-01T12:06:10.217Z,0.40
2023-04-01T12:08:47.602Z,0.60
2023-04-01T12:11:36.388Z,0.47
2023-04-01T12:14:03.454Z,0.40
2023-04-01T12:16:55.217Z,0.60
2023-04-01T12:19:42.737Z,0.57
2023-04-01T12:22:24.812Z,0.40
2023-04-01T12:24:55.080Z,0.50
2023-04-01T12:27:59.353Z,0.60
2023-04-01T12:30:49.653Z,0.60
2023-04-01T12:33:53.992Z,0.40
2023-04-01T12:36:30.004Z,0.37
2023-04-01T12:39:20.223Z,0.40
2023-04-01T12:41:57.283Z,0.60
2023-04-01T12:45:06.768Z,0.50
2023-04-01T12:47:48.933Z,0.60
2023-04-01T12:50:33.361Z,0.60
2023-04-01T12:53:09.510Z,0.43
2023-04-01T12:55:37.807Z,0.60
2023-04-01T12:58:13.853Z,0.50
2023-04-01T13:01:03.119Z,0.57
2023-04-01T13:03:42.413Z,0.30
2023-04-01T13:06:20.897Z,0.47
2023-04-01T13:09:07.670Z,0.50
2023-04-01T13:11:53.606Z,0.40
2023-04-01T13:14:57.822Z,0.60
2023-04-01T13:17:42.184Z,0.50
2023-04-01T13:20:27.593Z,0.60
2023-04-01T13:23:18.620Z,0.53
2023-04-01T13:26:14.530Z,0.40
2023-04-01T13:28:46.742Z,0.50
2023-04-01T13:31:42.815Z,0.43
2023-04-01T13:34:25.212Z,0.37
2023-04-01T13:37:24.730Z,0.40
2023-04-01T13:40:04.428Z,0.40
2023-04-01T13:42:51.040Z,0.40
2023-04-01T13:45:22.619Z,0.50
2023-04-01T13:47:55.997Z,0.40
2023-04-01T13:50:47.717Z,0.50
2023-04-01T13:53:29.205Z,0.57
2023-04-01T13:56:11.528Z,0.50
2023-04-01T13:58:44.739Z,0.50
2023-04-01T14:01:45.620Z,0.57
2023-04-01T14:04:31.285Z,0.50
2023-04-01T14:07:20.414Z,0.50
2023-04-01T14:09:53.397Z,0.40
2023-04-01T14:12:35.452Z,0.63
2023-04-01T14:15:48.592Z,0.67
2023-04-01T14:18:39.430Z,0.50
2023-04-01T14:21:23.016Z,0.47
2023-04-01T14:23:56.414Z,0.50
2023-04-01T14:26:59.089Z,0.57
2023-04-01T14:29:54.209Z,0.70
2023-04-01T14:32:45.875Z,0.50
2023-04-01T14:35:26.443Z,0.50
2023-04-01T14:38:20.976Z,0.73
2023-04-01T14:40:58.485Z,0.67
2023-04-01T14:43:48.159Z,0.67
2023-04-01T14:46:37.691Z,0.50
2023-04-01T14:49:31.715Z,0.43
2023-04-01T14:52:16.238Z,0.60
2023-04-01T14:54:47.502Z,0.60
2023-04-01T14:57:19.652Z,0.57
2023-04-01T15:00:09.945Z,0.60
2023-04-01T15:02:46.368Z,0.70
2023-04-01T15:05:34.828Z,0.50
2023-04-01T15:08:14.652Z,0.60
2023-04-01T15:11:03.419Z,0.80
2023-04-01T15:13:31.137Z,0.70
2023-04-01T15:16:25.594Z,0.57
2023-04-01T15:19:14.768Z,0.50
2023-04-01T15:21:50.744Z,0.40
2023-04-01T15:24:25.830Z,0.77
2023-04-01T15:27:11.245Z,0.60
2023-04-01T15:30:12.901Z,0.80
2023-04-01T15:33:00.929Z,0.60
2023-04-01T15:35:47.300Z,0.80
2023-04-01T15:38:32.724Z,0.90
2023-04-01T15:41:22.827Z,0.73
2023-04-01T15:43:53.349Z,0.80
2023-04-01T15:46:43.334Z,0.70
2023-04-01T15:49:36.978Z,1.00
2023-04-01T15:52:07.514Z,0.70
2023-04-01T15:54:53.183Z,0.80
2023-04-01T15:57:29.729Z,1.00
2023-04-01T16:00:11.369Z,1.10
2023-04-01T16:03:16.704Z,0.90
2023-04-01T16:05:44.408Z,1.00
2023-04-01T16:08:50.554Z,0.97
2023-04-01T16:11:56.986Z,0.93
2023-04-01T16:14:44.318Z,1.03
2023-04-01T16:17:17.761Z,1.10
2023-04-01T16:20:16.410Z,1.10
2023-04-01T16:22:58.256Z,1.17
2023-04-01T16:25:41.119Z,1.20
2023-04-01T16:28:47.331Z,0.93
2023-04-01T16:31:25.903Z,1.47
2023-04-01T16:34:12.063Z,1.60
2023-04-01T16:36:51.742Z,1.60
2023-04-01T16:39:36.303Z,1.27
2023-04-01T16:42:23.228Z,1.40
2023-04-01T16:45:00.570Z,1.63
2023-04-01T16:47:40.709Z,1.67
2023-04-01T16:50:16.959Z,1.60
2023-04-01T16:53:01.516Z,1.40
2023-04-01T16:56:03.862Z,1.37
2023-04-01T16:58:56.848Z,1.27
2023-04-01T17:01:31.971Z,1.57
2023-04-01T17:04:09.362Z,1.43
2023-04-01T17:07:01.903Z,1.20
2023-04-01T17:09:39.500Z,1.03
2023-04-01T17:12:26.634Z,1.90
2023-04-01T17:15:02.759Z,1.40
2023-04-01T17:17:37.712Z,1.17
2023-04-01T17:20:37.862Z,1.70
2023-04-01T17:23:19.853Z,1.37
2023-04-01T17:25:52.808Z,1.60
2023-04-01T17:28:41.928Z,1.80
2023-04-01T17:31:22.535Z,1.77
2023-04-01T17:34:27.806Z,1.30
2023-04-01T17:37:19.531Z,1.73
2023-04-01T17:39:49.422Z,1.67
2023-04-01T17:42:38.554Z,2.00
2023-04-01T17:45:40.391Z,1.40
2023-04-01T17:48:15.893Z,1.70
2023-04-01T17:50:52.124Z,1.50
2023-04-01T17:53:44.619Z,1.83
2023-04-01T17:56:39.819Z,1.43
2023-04-01T17:59:25.623Z,1.57
2023-04-01T18:02:00.929Z,1.60
2023-04-01T18:05:00.434Z,1.37
2023-04-01T18:07:59.352Z,1.87
2023-04-01T18:10:50.736Z,2.13
2023-04-01T18:13:27.179Z,1.30
2023-04-01T18:16:31.380Z,1.50
2023-04-01T18:19:38.687Z,1.70
2023-04-01T18:22:38.720Z,1.40
2023-04-01T18:25:08.833Z,1.63
2023-04-01T18:27:49.551Z,1.60
2023-04-01T18:30:26.183Z,1.67
2023-04-01T18:33:35.977Z,1.97
2023-04-01T18:36:09.570Z,1.60
2023-04-01T18:38:48.815Z,2.00
2023-04-01T18:41:35.891Z,1.70
2023-04-01T18:44:15.017Z,1.60
2023-04-01T18:47:14.360Z,1.60
2023-04-01T18:50:08.745Z,1.80
2023-04-01T18:52:45.302Z,1.83
2023-04-01T18:55:30.575Z,1.37
2023-04-01T18:58:07.840Z,1.40
2023-04-01T19:00:44.311Z,1.30
2023-04-01T19:03:23.069Z,1.70
2023-04-01T19:05:54.996Z,1.60
2023-04-01T19:08:30.369Z,1.73
2023-04-01T19:11:11.903Z,1.60
2023-04-01T19:14:09.127Z,1.87
2023-04-01T19:16:52.848Z,1.93
2023-04-01T19:19:59.601Z,1.87
2023-04-01T19:22:56.564Z,1.50
2023-04-01T19:25:37.862Z,1.90
2023-04-01T19:28:22.737Z,1.87
2023-04-01T19:30:57.411Z,1.60
2023-04-01T19:33:52.634Z,1.40
2023-04-01T19:36:31.681Z,2.43
2023-04-01T19:39:10.232Z,1.43
2023-04-01T19:42:05.554Z,1.63
2023-04-01T19:44:41.478Z,1.50
2023-04-01T19:47:27.534Z,1.93
2023-04-01T19:50:11.779Z,1.73
2023-04-01T19:52:42.895Z,1.90
2023-04-01T19:55:41.670Z,2.10
2023-04-01T19:58:35.037Z,1.73
2023-04-01T20:01:04.784Z,1.80
2023-04-01T20:03:52.348Z,1.40
2023-04-01T20:06:53.511Z,1.90
2023-04-01T20:09:27.474Z,1.97
2023-04-01T20:12:27.959Z,1.57
2023-04-01T20:14:59.832Z,2.00
2023-04-01T20:17:39.448Z,1.70
2023-04-01T20:20:28.470Z,1.80
2023-04-01T20:23:01.820Z,1.33
2023-04-01T20:25:39.695Z,1.60
2023-04-01T20:28:24.477Z,1.57
2023-04-01T20:31:10.871Z,1.77
2023-04-01T20:34:11.781Z,1.60
2023-04-01T20:37:11.916Z,1.63
2023-04-01T20:40:12.908Z,1.83
2023-04-01T20:43:12.426Z,1.77
2023-04-01T20:45:54.703Z,1.70
2023-04-01T20:48:43.329Z,1.43
2023-04-01T20:51:15.998Z,1.93
2023-04-01T20:54:03.886Z,1.50
2023-04-01T20:56:54.538Z,1.60
2023-04-01T21:00:00.262Z,1.37
2023-04-01T21:02:49.076Z,1.43
2023-04-01T21:05:37.711Z,1.83
2023-04-01T21:08:33.547Z,1.90
2023-04-01T21:11:13.554Z,1.70
2023-04-01T21:13:55.811Z,1.60
2023-04-01T21:16:49.977Z,1.53
2023-04-01T21:19:33.506Z,1.83
2023-04-01T21:22:17.792Z,1.83
2023-04-01T21:25:15.757Z,1.93
2023-04-01T21:28:12.269Z,1.80
2023-04-01T21:30:42.558Z,1.80
2023-04-01T21:33:45.803Z,1.30
2023-04-01T21:36:29.016Z,1.50
2023-04-01T21:39:02.071Z,1.40
2023-04-01T21:41:50.861Z,1.47
2023-04-01T21:44:39.590Z,1.40
2023-04-01T21:47:26.218Z,1.53
2023-04-01T21:50:14.973Z,1.83
2023-04-01T21:53:16.890Z,1.80
2023-04-01T21:56:09.337Z,1.40
2023-04-01T21:59:02.670Z,1.80
2023-04-01T22:01:57.124Z,1.77
2023-04-01T22:04:24.571Z,1.77
2023-04-01T22:07:23.435Z,1.40
2023-04-01T22:10:05.793Z,1.60
2023-04-01T22:12:50.172Z,1.47
2023-04-01T22:15:51.608Z,1.07
2023-04-01T22:18:38.296Z,1.30
2023-04-01T22:21:22.540Z,1.67
2023-04-01T22:24:17.612Z,1.70
2023-04-01T22:27:07.536Z,1.60
2023-04-01T22:29:52.078Z,1.60
2023-04-01T22:32:29.692Z,1.87
2023-04-01T22:35:03.887Z,1.47
2023-04-01T22:37:48.583Z,1.70
2023-04-01T22:40:18.940Z,1.63
2023-04-01T22:42:59.087Z,1.70
2023-04-01T22:45:47.296Z,1.63
2023-04-01T22:48:26.863Z,1.70
2023-04-01T22:51:13.406Z,1.97
2023-04-01T22:54:05.881Z,1.90
2023-04-01T22:56:46.007Z,2.00
2023-04-01T22:59:17.248Z,1.60
2023-04-01T23:02:00.623Z,1.90
2023-04-01T23:04:34.963Z,1.80
2023-04-01T23:07:15.077Z,1.87
2023-04-01T23:09:42.592Z,1.70
2023-04-01T23:12:16.514Z,1.40
2023-04-01T23:15:01.021Z,1.80
2023-04-01T23:17:47.073Z,2.07
2023-04-01T23:20:33.009Z,1.80
2023-04-01T23:23:25.515Z,1.77
2023-04-01T23:25:58.160Z,1.97
2023-04-01T23:28:42.964Z,1.50
2023-04-01T23:31:30.918Z,2.00
2023-04-01T23:34:01.888Z,1.40
2023-04-01T23:36:31.136Z,1.67
2023-04-01T23:39:04.664Z,1.93
2023-04-01T23:41:34.553Z,1.77
2023-04-01T23:44:09.349Z,1.60
2023-04-01T23:46:37.583Z,1.70
2023-04-01T23:49:07.465Z,1.83
2023-04-01T23:51:47.328Z,1.60
2023-04-01T23:54:30.279Z,1.30
2023-04-01T23:56:58.541Z,1.77
2023-04-01T23:59:34.416Z,1.80
